createdAt,value
2018-03-29T00:01:22.408Z,14.03
2018-03-29T00:03:56.983Z,13.67
2018-03-29T00:06:31.879Z,14.00
2018-03-29T00:09:06.786Z,14.00
2018-03-29T00:11:42.307Z,14.17
2018-03-29T00:14:17.752Z,13.50
2018-03-29T00:16:52.531Z,15.17
2018-03-29T00:19:27.232Z,13.57
2018-03-29T00:22:01.796Z,13.60
2018-03-29T00:24:36.455Z,13.43
2018-03-29T00:27:11.269Z,15.27
2018-03-29T00:29:46.226Z,15.53
2018-03-29T00:32:20.824Z,15.13
2018-03-29T00:34:55.379Z,16.33
2018-03-29T00:37:30.205Z,15.80
2018-03-29T00:40:04.450Z,14.80
2018-03-29T00:42:39.869Z,16.67
2018-03-29T00:45:14.496Z,15.53
2018-03-29T00:47:49.234Z,16.10
2018-03-29T00:50:24.901Z,16.77
2018-03-29T00:53:23.763Z,17.63
2018-03-29T00:55:58.405Z,17.93
2018-03-29T00:58:33.068Z,16.83
2018-03-29T01:01:08.384Z,18.23
2018-03-29T01:03:43.391Z,17.50
2018-03-29T01:06:18.074Z,18.33
2018-03-29T01:08:52.996Z,15.90
2018-03-29T01:11:27.634Z,17.27
2018-03-29T01:14:02.157Z,17.50
2018-03-29T01:16:36.767Z,18.90
2018-03-29T01:19:12.214Z,17.37
2018-03-29T01:21:46.496Z,17.30
2018-03-29T01:24:21.796Z,18.53
2018-03-29T01:26:56.528Z,19.27
2018-03-29T01:29:32.400Z,19.50
2018-03-29T01:32:07.892Z,19.17
2018-03-29T01:34:43.329Z,19.43
2018-03-29T01:37:18.177Z,20.40
2018-03-29T01:39:52.919Z,21.30
2018-03-29T01:42:27.718Z,20.80
2018-03-29T01:45:02.722Z,22.00
2018-03-29T01:47:37.557Z,22.90
2018-03-29T01:50:12.229Z,22.60
2018-03-29T01:52:46.733Z,23.40
2018-03-29T01:55:21.765Z,23.43
2018-03-29T01:57:56.520Z,22.67
2018-03-29T02:00:31.168Z,22.70
2018-03-29T02:03:06.869Z,22.40
2018-03-29T02:05:42.296Z,21.23
2018-03-29T02:08:17.205Z,21.33
2018-03-29T02:11:02.085Z,20.40
2018-03-29T02:13:36.683Z,20.83
2018-03-29T02:16:12.175Z,20.60
2018-03-29T02:18:46.805Z,20.53
2018-03-29T02:21:21.563Z,18.67
2018-03-29T02:23:56.135Z,19.63
2018-03-29T02:26:30.811Z,20.30
2018-03-29T02:29:06.254Z,20.10
2018-03-29T02:31:41.105Z,20.60
2018-03-29T02:34:16.482Z,19.97
2018-03-29T02:36:51.072Z,22.10
2018-03-29T02:39:26.005Z,21.80
2018-03-29T02:42:02.434Z,21.60
2018-03-29T02:44:37.053Z,21.50
2018-03-29T02:47:11.878Z,20.70
2018-03-29T02:49:46.544Z,21.83
2018-03-29T02:52:21.135Z,22.00
2018-03-29T02:54:55.722Z,21.27
2018-03-29T02:57:30.381Z,20.37
2018-03-29T03:00:04.364Z,21.47
2018-03-29T03:02:39.151Z,18.67
2018-03-29T03:05:13.746Z,20.13
2018-03-29T03:07:49.945Z,20.70
2018-03-29T03:10:25.215Z,19.70
2018-03-29T03:12:59.871Z,19.90
2018-03-29T03:15:34.443Z,18.43
2018-03-29T03:18:09.128Z,20.70
2018-03-29T03:20:43.847Z,18.53
2018-03-29T03:23:18.763Z,17.47
2018-03-29T03:25:53.539Z,18.20
2018-03-29T03:28:28.112Z,17.30
2018-03-29T03:31:02.920Z,16.60
2018-03-29T03:33:37.676Z,17.07
2018-03-29T03:36:12.357Z,18.00
2018-03-29T03:38:47.839Z,17.27
2018-03-29T03:41:22.610Z,16.50
2018-03-29T03:43:57.457Z,17.83
2018-03-29T03:46:32.040Z,17.17
2018-03-29T03:49:06.833Z,17.37
2018-03-29T03:51:41.569Z,16.77
2018-03-29T03:54:16.418Z,17.00
2018-03-29T03:56:51.115Z,18.57
2018-03-29T03:59:25.923Z,17.90
2018-03-29T04:02:00.669Z,17.37
2018-03-29T04:04:35.225Z,17.10
2018-03-29T04:07:09.761Z,17.90
2018-03-29T04:09:44.464Z,17.83
2018-03-29T04:12:19.162Z,18.87
2018-03-29T04:14:54.028Z,18.40
2018-03-29T04:17:28.818Z,18.07
2018-03-29T04:20:04.361Z,17.13
2018-03-29T04:22:39.012Z,18.17
2018-03-29T04:25:13.773Z,19.33
2018-03-29T04:27:48.335Z,17.57
2018-03-29T04:30:22.976Z,18.10
2018-03-29T04:32:57.729Z,19.17
2018-03-29T04:35:32.617Z,19.50
2018-03-29T04:38:08.183Z,18.27
2018-03-29T04:40:42.863Z,18.33
2018-03-29T04:43:17.442Z,18.37
2018-03-29T04:45:52.795Z,18.37
2018-03-29T04:48:27.501Z,17.90
2018-03-29T04:51:02.042Z,18.10
2018-03-29T04:53:36.641Z,17.83
2018-03-29T04:56:11.422Z,19.80
2018-03-29T04:58:46.235Z,18.77
2018-03-29T05:01:21.510Z,21.07
2018-03-29T05:03:56.311Z,19.93
2018-03-29T05:06:30.872Z,19.73
2018-03-29T05:09:04.841Z,19.80
2018-03-29T05:11:39.707Z,19.30
2018-03-29T05:14:14.397Z,18.83
2018-03-29T05:16:51.074Z,18.23
2018-03-29T05:19:26.624Z,20.17
2018-03-29T05:22:01.903Z,21.03
2018-03-29T05:24:36.656Z,19.53
2018-03-29T05:27:16.678Z,21.53
2018-03-29T05:29:51.944Z,20.80
2018-03-29T05:32:26.592Z,20.97
2018-03-29T05:35:01.356Z,22.30
2018-03-29T05:37:36.151Z,21.90
2018-03-29T05:40:10.736Z,21.80
2018-03-29T05:42:45.604Z,23.17
2018-03-29T05:45:21.191Z,22.73
2018-03-29T05:47:55.912Z,23.93
2018-03-29T05:50:30.615Z,23.30
2018-03-29T05:53:04.954Z,24.87
2018-03-29T05:55:39.754Z,22.97
2018-03-29T05:58:14.333Z,21.23
2018-03-29T06:00:49.347Z,24.40
2018-03-29T06:03:23.963Z,24.47
2018-03-29T06:05:59.035Z,24.70
2018-03-29T06:08:34.310Z,30.13
2018-03-29T06:11:09.928Z,29.67
2018-03-29T06:13:45.408Z,27.80
2018-03-29T06:16:19.780Z,32.33
2018-03-29T06:18:59.003Z,32.50
2018-03-29T06:21:33.642Z,30.70
2018-03-29T06:24:08.997Z,30.93
2018-03-29T06:26:43.736Z,28.63
2018-03-29T06:29:18.529Z,27.80
2018-03-29T06:31:53.134Z,28.60
2018-03-29T06:34:27.885Z,28.27
2018-03-29T06:37:02.539Z,33.37
2018-03-29T06:39:37.931Z,30.67
2018-03-29T06:42:12.715Z,30.43
2018-03-29T06:44:47.384Z,29.87
2018-03-29T06:47:22.087Z,30.83
2018-03-29T06:49:56.802Z,29.97
2018-03-29T06:52:31.506Z,30.70
2018-03-29T06:55:06.137Z,29.70
2018-03-29T06:57:40.981Z,31.20
2018-03-29T07:00:15.572Z,30.10
2018-03-29T07:02:50.338Z,29.87
2018-03-29T07:05:24.951Z,28.00
2018-03-29T07:07:59.727Z,27.40
2018-03-29T07:10:34.333Z,26.27
2018-03-29T07:13:08.915Z,29.77
2018-03-29T07:15:44.357Z,27.10
2018-03-29T07:18:18.845Z,27.10
2018-03-29T07:20:53.491Z,27.00
2018-03-29T07:23:28.318Z,25.40
2018-03-29T07:26:03.191Z,26.40
2018-03-29T07:28:38.197Z,26.80
2018-03-29T07:31:12.487Z,26.10
2018-03-29T07:33:47.353Z,25.87
2018-03-29T07:36:22.157Z,26.20
2018-03-29T07:38:57.049Z,24.50
2018-03-29T07:41:31.687Z,25.33
2018-03-29T07:44:06.340Z,24.37
2018-03-29T07:46:40.995Z,24.07
2018-03-29T07:49:16.433Z,24.40
2018-03-29T07:51:51.106Z,23.93
2018-03-29T07:54:25.828Z,23.30
2018-03-29T07:57:00.674Z,24.17
2018-03-29T07:59:35.637Z,22.10
2018-03-29T08:02:10.575Z,22.60
2018-03-29T08:04:45.513Z,22.97
2018-03-29T08:07:21.035Z,23.87
2018-03-29T08:09:56.053Z,22.50
2018-03-29T08:12:30.724Z,22.97
2018-03-29T08:15:05.457Z,21.93
2018-03-29T08:17:40.794Z,21.83
2018-03-29T08:20:15.512Z,24.00
2018-03-29T08:22:50.393Z,22.50
2018-03-29T08:25:26.001Z,22.97
2018-03-29T08:28:00.613Z,21.97
2018-03-29T08:30:35.287Z,23.20
2018-03-29T08:33:10.115Z,23.43
2018-03-29T08:35:44.968Z,23.67
2018-03-29T08:38:19.511Z,23.17
2018-03-29T08:40:54.121Z,23.23
2018-03-29T08:43:28.868Z,22.37
2018-03-29T08:46:03.616Z,24.17
2018-03-29T08:48:38.576Z,22.80
2018-03-29T08:51:14.024Z,22.47
2018-03-29T08:53:48.915Z,20.70
2018-03-29T08:56:24.122Z,22.30
2018-03-29T08:58:58.691Z,20.53
2018-03-29T09:01:33.499Z,20.17
2018-03-29T09:04:08.422Z,19.20
2018-03-29T09:06:44.701Z,19.53
2018-03-29T09:09:19.440Z,20.00
2018-03-29T09:11:55.250Z,21.73
2018-03-29T09:14:29.882Z,19.77
2018-03-29T09:17:05.219Z,20.80
2018-03-29T09:19:39.873Z,21.57
2018-03-29T09:22:15.344Z,19.63
2018-03-29T09:24:50.348Z,18.70
2018-03-29T09:27:25.798Z,19.07
2018-03-29T09:30:00.600Z,19.20
2018-03-29T09:32:35.123Z,19.07
2018-03-29T09:35:10.294Z,18.47
2018-03-29T09:37:45.120Z,17.43
2018-03-29T09:40:20.464Z,16.77
2018-03-29T09:42:55.259Z,16.70
2018-03-29T09:45:30.014Z,15.37
2018-03-29T09:48:07.330Z,15.80
2018-03-29T09:50:42.046Z,16.30
2018-03-29T09:53:16.965Z,16.50
2018-03-29T09:55:52.185Z,16.60
2018-03-29T09:58:27.148Z,16.23
2018-03-29T10:01:10.808Z,14.53
2018-03-29T10:03:50.858Z,15.03
2018-03-29T10:06:27.407Z,14.43
2018-03-29T10:09:02.140Z,14.90
2018-03-29T10:11:36.905Z,15.40
2018-03-29T10:14:11.692Z,14.30
2018-03-29T10:16:46.403Z,15.23
2018-03-29T10:19:21.011Z,15.40
2018-03-29T10:21:55.740Z,15.10
2018-03-29T10:24:30.516Z,14.70
2018-03-29T10:27:05.200Z,14.43
2018-03-29T10:29:39.862Z,15.10
2018-03-29T10:32:15.257Z,15.13
2018-03-29T10:34:49.926Z,13.87
2018-03-29T10:37:24.663Z,15.07
2018-03-29T10:39:59.741Z,14.77
2018-03-29T10:42:34.453Z,14.53
2018-03-29T10:45:09.359Z,13.77
2018-03-29T10:47:44.060Z,14.13
2018-03-29T10:50:18.664Z,12.60
2018-03-29T10:52:53.392Z,12.10
2018-03-29T10:55:28.359Z,11.87
2018-03-29T10:58:03.086Z,12.90
2018-03-29T11:00:37.814Z,11.47
2018-03-29T11:03:13.300Z,10.20
2018-03-29T11:05:48.031Z,9.37
2018-03-29T11:08:23.459Z,9.80
2018-03-29T11:10:58.985Z,9.53
2018-03-29T11:13:33.846Z,10.00
2018-03-29T11:16:08.783Z,10.07
2018-03-29T11:18:43.457Z,10.30
2018-03-29T11:21:19.615Z,8.30
2018-03-29T11:23:54.472Z,7.40
2018-03-29T11:26:29.127Z,7.70
2018-03-29T11:29:03.968Z,8.87
2018-03-29T11:31:38.486Z,10.00
2018-03-29T11:34:13.093Z,9.30
2018-03-29T11:36:47.749Z,9.37
2018-03-29T11:39:22.562Z,8.20
2018-03-29T11:41:57.979Z,7.80
2018-03-29T11:44:33.621Z,7.77
2018-03-29T11:47:08.591Z,8.67
2018-03-29T11:49:44.043Z,7.30
2018-03-29T11:52:19.584Z,6.60
2018-03-29T11:54:54.640Z,7.03
2018-03-29T11:57:29.353Z,6.40
2018-03-29T12:00:04.010Z,6.30
2018-03-29T12:02:38.875Z,7.10
2018-03-29T12:05:13.631Z,6.07
2018-03-29T12:07:49.193Z,5.80
2018-03-29T12:10:24.526Z,5.53
2018-03-29T12:13:00.075Z,5.33
2018-03-29T12:15:34.834Z,4.97
2018-03-29T12:18:10.504Z,3.37
2018-03-29T12:20:45.129Z,3.20
2018-03-29T12:23:19.772Z,4.23
2018-03-29T12:25:54.871Z,3.70
2018-03-29T12:28:29.597Z,3.73
2018-03-29T12:31:04.272Z,3.60
2018-03-29T12:33:39.064Z,3.07
2018-03-29T12:36:13.842Z,3.43
2018-03-29T12:38:48.469Z,3.27
2018-03-29T12:41:23.371Z,2.90
2018-03-29T12:43:58.101Z,2.63
2018-03-29T12:46:32.902Z,2.83
2018-03-29T12:49:07.860Z,2.93
2018-03-29T12:51:42.642Z,2.83
2018-03-29T12:54:17.299Z,3.43
2018-03-29T12:57:04.559Z,3.80
2018-03-29T12:59:39.296Z,2.70
2018-03-29T13:02:13.978Z,3.50
2018-03-29T13:04:48.806Z,4.80
2018-03-29T13:07:24.255Z,3.20
2018-03-29T13:09:59.145Z,3.07
2018-03-29T13:12:33.903Z,3.80
2018-03-29T13:15:09.141Z,3.00
2018-03-29T13:17:43.771Z,3.50
2018-03-29T13:20:18.562Z,3.60
2018-03-29T13:22:53.296Z,3.87
2018-03-29T13:25:29.118Z,3.57
2018-03-29T13:28:04.285Z,3.53
2018-03-29T13:30:38.608Z,4.10
2018-03-29T13:33:13.161Z,4.80
2018-03-29T13:35:47.762Z,3.80
2018-03-29T13:38:22.442Z,4.13
2018-03-29T13:40:57.101Z,5.50
2018-03-29T13:43:32.491Z,5.00
2018-03-29T13:46:08.165Z,5.67
2018-03-29T13:48:42.712Z,5.60
2018-03-29T13:51:17.327Z,5.80
2018-03-29T13:53:52.060Z,6.30
2018-03-29T13:56:27.876Z,6.03
2018-03-29T13:59:02.635Z,5.20
2018-03-29T14:01:38.298Z,5.30
2018-03-29T14:04:12.880Z,5.53
2018-03-29T14:06:47.486Z,5.50
2018-03-29T14:09:22.273Z,5.40
2018-03-29T14:11:56.915Z,6.10
2018-03-29T14:14:31.581Z,6.10
2018-03-29T14:17:06.362Z,6.03
2018-03-29T14:19:41.736Z,5.40
2018-03-29T14:22:17.495Z,6.37
2018-03-29T14:24:52.123Z,6.20
2018-03-29T14:27:26.744Z,6.50
2018-03-29T14:30:01.359Z,6.30
2018-03-29T14:32:36.246Z,6.33
2018-03-29T14:35:10.822Z,6.70
2018-03-29T14:37:45.715Z,7.23
2018-03-29T14:40:20.591Z,6.80
2018-03-29T14:42:55.226Z,6.50
2018-03-29T14:45:29.746Z,6.43
2018-03-29T14:48:04.540Z,7.30
2018-03-29T14:50:39.057Z,7.37
2018-03-29T14:53:13.692Z,6.90
2018-03-29T14:55:48.312Z,7.30
2018-03-29T14:58:23.145Z,7.10
2018-03-29T15:00:57.707Z,7.33
2018-03-29T15:03:32.276Z,7.63
2018-03-29T15:06:07.077Z,7.70
2018-03-29T15:08:42.126Z,7.67
2018-03-29T15:11:16.809Z,7.50
2018-03-29T15:13:52.287Z,7.73
2018-03-29T15:16:27.116Z,8.43
2018-03-29T15:19:01.766Z,7.37
2018-03-29T15:21:36.572Z,7.67
2018-03-29T15:24:11.391Z,7.17
2018-03-29T15:26:46.761Z,7.60
2018-03-29T15:29:21.423Z,7.47
2018-03-29T15:31:56.047Z,6.27
2018-03-29T15:34:30.976Z,6.00
2018-03-29T15:37:06.415Z,6.33
2018-03-29T15:39:41.761Z,5.90
2018-03-29T15:42:17.061Z,6.30
2018-03-29T15:44:51.663Z,5.20
2018-03-29T15:47:26.555Z,5.60
2018-03-29T15:50:01.115Z,5.70
2018-03-29T15:52:36.782Z,5.47
2018-03-29T15:55:12.494Z,5.47
2018-03-29T15:57:47.105Z,5.70
2018-03-29T16:00:21.721Z,5.63
2018-03-29T16:02:57.399Z,5.60
2018-03-29T16:05:32.014Z,4.60
2018-03-29T16:08:07.523Z,5.20
2018-03-29T16:10:42.134Z,4.90
2018-03-29T16:13:16.822Z,4.90
2018-03-29T16:15:51.799Z,4.43
2018-03-29T16:18:26.595Z,4.70
2018-03-29T16:21:01.707Z,4.57
2018-03-29T16:23:38.230Z,4.53
2018-03-29T16:26:13.034Z,4.07
2018-03-29T16:28:48.423Z,4.60
2018-03-29T16:31:23.170Z,4.67
2018-03-29T16:33:57.840Z,4.40
2018-03-29T16:36:33.069Z,4.80
2018-03-29T16:39:07.607Z,4.20
2018-03-29T16:41:42.273Z,4.60
2018-03-29T16:44:17.725Z,4.70
2018-03-29T16:46:52.478Z,4.53
2018-03-29T16:49:26.850Z,4.43
2018-03-29T16:52:01.519Z,3.87
2018-03-29T16:54:36.274Z,3.90
2018-03-29T16:57:11.062Z,3.43
2018-03-29T16:59:45.844Z,4.10
2018-03-29T17:02:20.480Z,4.13
2018-03-29T17:04:55.154Z,3.60
2018-03-29T17:07:30.637Z,3.67
2018-03-29T17:10:05.025Z,4.10
2018-03-29T17:12:40.499Z,3.53
2018-03-29T17:15:15.294Z,4.10
2018-03-29T17:17:49.964Z,3.70
2018-03-29T17:20:24.803Z,4.20
2018-03-29T17:22:59.540Z,3.90
2018-03-29T17:25:33.896Z,4.33
2018-03-29T17:28:08.717Z,3.60
2018-03-29T17:30:43.897Z,4.20
2018-03-29T17:33:19.204Z,4.40
2018-03-29T17:35:54.137Z,3.73
2018-03-29T17:38:29.483Z,3.40
2018-03-29T17:41:04.457Z,3.73
2018-03-29T17:43:39.004Z,4.03
2018-03-29T17:46:13.539Z,3.90
2018-03-29T17:48:48.137Z,4.40
2018-03-29T17:51:22.932Z,4.20
2018-03-29T17:53:57.483Z,4.30
2018-03-29T17:56:32.217Z,4.40
2018-03-29T17:59:07.720Z,4.40
2018-03-29T18:01:42.489Z,4.77
2018-03-29T18:04:18.044Z,4.63
2018-03-29T18:06:52.783Z,4.00
2018-03-29T18:09:27.341Z,4.20
2018-03-29T18:12:02.895Z,3.90
2018-03-29T18:14:38.204Z,4.60
2018-03-29T18:17:14.989Z,4.37
2018-03-29T18:19:50.585Z,4.50
2018-03-29T18:22:25.209Z,4.67
2018-03-29T18:24:59.938Z,5.13
2018-03-29T18:27:34.428Z,5.20
2018-03-29T18:30:09.416Z,5.27
2018-03-29T18:32:44.173Z,5.57
2018-03-29T18:35:18.936Z,6.73
2018-03-29T18:37:54.402Z,5.60
2018-03-29T18:40:29.042Z,5.43
2018-03-29T18:43:03.579Z,5.80
2018-03-29T18:45:38.463Z,5.57
2018-03-29T18:48:13.916Z,5.20
2018-03-29T18:50:48.707Z,5.70
2018-03-29T18:53:23.810Z,5.40
2018-03-29T18:55:58.605Z,5.47
2018-03-29T18:58:33.542Z,6.07
2018-03-29T19:01:08.317Z,5.67
2018-03-29T19:03:43.273Z,6.30
2018-03-29T19:06:13.247Z,6.70
2018-03-29T19:08:42.228Z,6.27
2018-03-29T19:11:11.741Z,5.80
2018-03-29T19:13:41.466Z,6.20
2018-03-29T19:16:10.534Z,7.23
2018-03-29T19:18:39.696Z,6.80
2018-03-29T19:21:08.907Z,6.37
2018-03-29T19:23:38.824Z,6.27
2018-03-29T19:26:08.088Z,6.70
2018-03-29T19:28:38.132Z,7.60
2018-03-29T19:31:07.297Z,6.70
2018-03-29T19:33:36.290Z,6.93
2018-03-29T19:36:05.285Z,5.90
2018-03-29T19:38:34.196Z,7.80
2018-03-29T19:41:03.273Z,6.37
2018-03-29T19:43:33.283Z,6.67
2018-03-29T19:46:07.966Z,6.33
2018-03-29T19:48:42.656Z,6.53
2018-03-29T19:51:17.625Z,7.03
2018-03-29T19:53:52.927Z,6.97
2018-03-29T19:56:21.857Z,6.47
2018-03-29T19:58:51.747Z,7.37
2018-03-29T20:01:20.771Z,7.10
2018-03-29T20:03:49.582Z,7.37
2018-03-29T20:06:19.602Z,6.10
2018-03-29T20:08:48.572Z,7.53
2018-03-29T20:11:17.445Z,7.10
2018-03-29T20:13:48.200Z,7.03
2018-03-29T20:16:18.043Z,6.27
2018-03-29T20:18:47.334Z,6.90
2018-03-29T20:21:17.763Z,7.20
2018-03-29T20:23:46.706Z,7.40
2018-03-29T20:26:16.399Z,7.80
2018-03-29T20:28:45.424Z,7.43
2018-03-29T20:31:14.520Z,7.60
2018-03-29T20:33:43.542Z,7.57
2018-03-29T20:36:12.491Z,8.70
2018-03-29T20:38:41.782Z,8.00
2018-03-29T20:41:10.922Z,8.23
2018-03-29T20:43:41.067Z,8.23
2018-03-29T20:46:10.294Z,8.63
2018-03-29T20:48:44.982Z,8.23
2018-03-29T20:51:21.133Z,8.90
2018-03-29T20:53:55.676Z,8.53
2018-03-29T20:56:31.049Z,8.30
2018-03-29T20:59:05.676Z,8.37
2018-03-29T21:01:40.392Z,8.50
2018-03-29T21:04:10.479Z,8.43
2018-03-29T21:06:45.119Z,9.43
2018-03-29T21:09:20.553Z,7.60
2018-03-29T21:11:55.212Z,7.90
2018-03-29T21:14:29.809Z,8.50
2018-03-29T21:17:04.527Z,8.27
2018-03-29T21:19:39.177Z,7.83
2018-03-29T21:22:13.837Z,7.30
2018-03-29T21:24:49.061Z,7.90
2018-03-29T21:27:24.592Z,7.83
2018-03-29T21:29:59.331Z,7.80
2018-03-29T21:32:33.878Z,7.50
2018-03-29T21:35:08.473Z,7.70
2018-03-29T21:37:44.131Z,7.57
2018-03-29T21:40:18.937Z,7.50
2018-03-29T21:42:53.797Z,8.10
2018-03-29T21:45:28.487Z,8.10
2018-03-29T21:48:03.973Z,8.70
2018-03-29T21:50:38.779Z,7.20
2018-03-29T21:53:07.919Z,7.70
2018-03-29T21:55:42.602Z,7.20
2018-03-29T21:58:17.370Z,6.87
2018-03-29T22:00:52.024Z,7.30
2018-03-29T22:03:26.682Z,7.13
2018-03-29T22:06:01.357Z,7.23
2018-03-29T22:08:35.917Z,7.20
2018-03-29T22:11:10.799Z,7.50
2018-03-29T22:13:50.729Z,7.27
2018-03-29T22:16:25.441Z,7.20
2018-03-29T22:19:00.342Z,7.60
2018-03-29T22:21:35.061Z,7.30
2018-03-29T22:24:09.661Z,7.10
2018-03-29T22:26:44.686Z,7.27
2018-03-29T22:29:20.190Z,6.50
2018-03-29T22:31:54.761Z,6.70
2018-03-29T22:34:29.504Z,6.10
2018-03-29T22:37:04.187Z,6.27
2018-03-29T22:39:39.593Z,6.70
2018-03-29T22:42:15.279Z,7.13
2018-03-29T22:44:49.893Z,6.37
2018-03-29T22:47:19.019Z,6.77
2018-03-29T22:49:53.746Z,6.37
2018-03-29T22:52:29.245Z,7.10
2018-03-29T22:55:04.181Z,6.67
2018-03-29T22:57:38.914Z,6.10
2018-03-29T23:00:13.820Z,7.00
2018-03-29T23:02:48.567Z,6.40
2018-03-29T23:05:23.186Z,6.60
2018-03-29T23:07:57.837Z,7.27
2018-03-29T23:10:32.401Z,7.53
2018-03-29T23:13:07.016Z,7.10
2018-03-29T23:15:41.841Z,6.53
2018-03-29T23:18:17.600Z,6.80
2018-03-29T23:20:51.788Z,6.93
2018-03-29T23:23:26.248Z,7.33
2018-03-29T23:26:01.122Z,6.40
2018-03-29T23:28:35.966Z,6.70
2018-03-29T23:31:10.717Z,6.40
2018-03-29T23:33:46.102Z,7.23
2018-03-29T23:36:20.873Z,6.77
2018-03-29T23:38:55.594Z,7.20
2018-03-29T23:41:30.464Z,6.27
2018-03-29T23:44:04.798Z,6.97
2018-03-29T23:46:39.470Z,6.83
2018-03-29T23:49:14.416Z,6.80
2018-03-29T23:51:49.832Z,6.90
2018-03-29T23:54:24.696Z,6.17
2018-03-29T23:57:00.860Z,6.00
2018-03-29T23:59:35.411Z,6.70
